sensor_id;sensor_type;location;lat;lon;timestamp;pressure;altitude;pressure_sealevel;temperature;humidity
18918;BME280;9591;52.742;13.650;2023-06-22T00:00:41;101404.25;;;19.91;100.00
18918;BME280;9591;52.742;13.650;2023-06-22T00:03:28;101401.53;;;19.77;100.00
18918;BME280;9591;52.742;13.650;2023-06-22T00:06:15;101403.53;;;19.73;100.00
18918;BME280;9591;52.742;13.650;2023-06-22T00:09:02;101406.50;;;19.69;100.00
18918;BME280;9591;52.742;13.650;2023-06-22T00:11:50;101404.59;;;19.71;100.00
18918;BME280;9591;52.742;13.650;2023-06-22T00:14:37;101414.78;;;19.80;100.00
18918;BME280;9591;52.742;13.650;2023-06-22T00:17:23;101412.06;;;19.66;100.00
18918;BME280;9591;52.742;13.650;2023-06-22T00:20:11;101410.59;;;19.60;100.00
18918;BME280;9591;52.742;13.650;2023-06-22T00:23:00;101413.88;;;19.65;100.00
18918;BME280;9591;52.742;13.650;2023-06-22T00:25:46;101415.69;;;19.64;100.00
18918;BME280;9591;52.742;13.650;2023-06-22T00:28:35;101415.47;;;19.83;100.00
18918;BME280;9591;52.742;13.650;2023-06-22T00:31:21;101422.16;;;19.76;100.00
18918;BME280;9591;52.742;13.650;2023-06-22T00:34:12;101422.63;;;19.69;100.00
18918;BME280;9591;52.742;13.650;2023-06-22T00:36:59;101419.03;;;19.54;100.00
18918;BME280;9591;52.742;13.650;2023-06-22T00:39:45;101431.81;;;19.64;100.00
18918;BME280;9591;52.742;13.650;2023-06-22T00:42:32;101431.47;;;19.71;100.00
18918;BME280;9591;52.742;13.650;2023-06-22T00:45:20;101424.91;;;19.60;100.00
18918;BME280;9591;52.742;13.650;2023-06-22T00:48:08;101427.16;;;19.52;100.00
18918;BME280;9591;52.742;13.650;2023-06-22T00:50:55;101427.94;;;19.54;100.00
18918;BME280;9591;52.742;13.650;2023-06-22T00:53:41;101441.28;;;19.56;100.00
18918;BME280;9591;52.742;13.650;2023-06-22T00:56:28;101438.41;;;19.43;100.00
18918;BME280;9591;52.742;13.650;2023-06-22T00:59:15;101440.16;;;19.44;100.00
18918;BME280;9591;52.742;13.650;2023-06-22T01:02:04;101443.19;;;19.54;100.00
18918;BME280;9591;52.742;13.650;2023-06-22T01:04:53;101431.03;;;19.47;100.00
18918;BME280;9591;52.742;13.650;2023-06-22T01:07:48;101430.28;;;19.45;100.00
18918;BME280;9591;52.742;13.650;2023-06-22T01:10:43;101431.13;;;19.45;100.00
18918;BME280;9591;52.742;13.650;2023-06-22T01:13:37;101441.00;;;19.45;100.00
18918;BME280;9591;52.742;13.650;2023-06-22T01:16:26;101450.81;;;19.46;100.00
18918;BME280;9591;52.742;13.650;2023-06-22T01:19:25;101443.19;;;19.54;100.00
18918;BME280;9591;52.742;13.650;2023-06-22T01:22:16;101445.97;;;19.52;100.00
18918;BME280;9591;52.742;13.650;2023-06-22T01:25:09;101449.53;;;19.53;100.00
18918;BME280;9591;52.742;13.650;2023-06-22T01:28:03;101443.78;;;19.43;100.00
18918;BME280;9591;52.742;13.650;2023-06-22T01:30:53;101451.78;;;19.29;100.00
18918;BME280;9591;52.742;13.650;2023-06-22T01:33:51;101455.66;;;19.23;100.00
18918;BME280;9591;52.742;13.650;2023-06-22T01:36:40;101462.59;;;19.27;100.00
18918;BME280;9591;52.742;13.650;2023-06-22T01:39:27;101455.06;;;19.18;100.00
18918;BME280;9591;52.742;13.650;2023-06-22T01:42:14;101464.94;;;19.18;100.00
18918;BME280;9591;52.742;13.650;2023-06-22T01:45:02;101462.69;;;19.10;100.00
18918;BME280;9591;52.742;13.650;2023-06-22T01:47:53;101462.53;;;18.97;100.00
18918;BME280;9591;52.742;13.650;2023-06-22T01:50:43;101466.69;;;18.87;100.00
18918;BME280;9591;52.742;13.650;2023-06-22T01:53:37;101476.00;;;18.80;100.00
18918;BME280;9591;52.742;13.650;2023-06-22T01:56:24;101468.31;;;18.74;100.00
18918;BME280;9591;52.742;13.650;2023-06-22T01:59:19;101471.16;;;18.71;100.00
18918;BME280;9591;52.742;13.650;2023-06-22T02:02:15;101479.19;;;18.54;100.00
18918;BME280;9591;52.742;13.650;2023-06-22T02:05:06;101484.56;;;18.54;100.00
18918;BME280;9591;52.742;13.650;2023-06-22T02:08:00;101483.53;;;18.56;100.00
18918;BME280;9591;52.742;13.650;2023-06-22T02:10:50;101489.59;;;18.60;100.00
18918;BME280;9591;52.742;13.650;2023-06-22T02:13:39;101487.09;;;18.57;100.00
18918;BME280;9591;52.742;13.650;2023-06-22T02:16:31;101483.69;;;18.53;100.00
18918;BME280;9591;52.742;13.650;2023-06-22T02:19:22;101479.69;;;18.45;100.00
18918;BME280;9591;52.742;13.650;2023-06-22T02:22:12;101480.97;;;18.38;100.00
18918;BME280;9591;52.742;13.650;2023-06-22T02:25:02;101425.44;;;17.89;100.00
18918;BME280;9591;52.742;13.650;2023-06-22T02:27:49;101486.69;;;18.14;100.00
18918;BME280;9591;52.742;13.650;2023-06-22T02:30:35;101487.63;;;18.13;100.00
18918;BME280;9591;52.742;13.650;2023-06-22T02:33:25;101485.59;;;18.18;100.00
18918;BME280;9591;52.742;13.650;2023-06-22T02:36:12;101491.50;;;18.08;100.00
18918;BME280;9591;52.742;13.650;2023-06-22T02:39:01;101487.88;;;18.09;100.00
18918;BME280;9591;52.742;13.650;2023-06-22T02:41:49;101477.38;;;18.04;100.00
18918;BME280;9591;52.742;13.650;2023-06-22T02:44:36;101478.25;;;18.05;100.00
18918;BME280;9591;52.742;13.650;2023-06-22T02:47:23;101477.22;;;18.07;100.00
18918;BME280;9591;52.742;13.650;2023-06-22T02:50:10;101476.69;;;18.00;100.00
18918;BME280;9591;52.742;13.650;2023-06-22T02:52:56;101481.19;;;18.00;100.00
18918;BME280;9591;52.742;13.650;2023-06-22T02:55:47;101481.25;;;17.98;100.00
18918;BME280;9591;52.742;13.650;2023-06-22T02:58:34;101486.63;;;17.98;100.00
18918;BME280;9591;52.742;13.650;2023-06-22T03:01:28;101495.28;;;18.04;100.00
18918;BME280;9591;52.742;13.650;2023-06-22T03:04:16;101497.06;;;18.20;100.00
18918;BME280;9591;52.742;13.650;2023-06-22T03:07:04;101494.31;;;18.22;100.00
18918;BME280;9591;52.742;13.650;2023-06-22T03:09:52;101494.06;;;18.26;100.00
18918;BME280;9591;52.742;13.650;2023-06-22T03:12:41;101495.88;;;18.26;100.00
18918;BME280;9591;52.742;13.650;2023-06-22T03:15:28;101495.81;;;18.27;100.00
18918;BME280;9591;52.742;13.650;2023-06-22T03:18:17;101501.88;;;18.31;100.00
18918;BME280;9591;52.742;13.650;2023-06-22T03:21:04;101499.56;;;18.41;100.00
18918;BME280;9591;52.742;13.650;2023-06-22T03:23:50;101502.25;;;18.41;100.00
18918;BME280;9591;52.742;13.650;2023-06-22T03:26:37;101508.56;;;18.40;100.00
18918;BME280;9591;52.742;13.650;2023-06-22T03:29:25;101504.94;;;18.41;100.00
18918;BME280;9591;52.742;13.650;2023-06-22T03:32:15;101500.59;;;18.38;100.00
18918;BME280;9591;52.742;13.650;2023-06-22T03:35:02;101502.28;;;18.23;100.00
18918;BME280;9591;52.742;13.650;2023-06-22T03:37:53;101504.88;;;18.25;100.00
18918;BME280;9591;52.742;13.650;2023-06-22T03:40:40;101503.75;;;18.29;100.00
18918;BME280;9591;52.742;13.650;2023-06-22T03:43:27;101493.34;;;18.40;100.00
18918;BME280;9591;52.742;13.650;2023-06-22T03:46:15;101490.66;;;18.40;100.00
18918;BME280;9591;52.742;13.650;2023-06-22T03:49:02;101485.13;;;18.43;100.00
18918;BME280;9591;52.742;13.650;2023-06-22T03:51:50;101488.16;;;18.37;100.00
18918;BME280;9591;52.742;13.650;2023-06-22T03:54:36;101487.97;;;18.40;100.00
18918;BME280;9591;52.742;13.650;2023-06-22T03:57:23;101488.59;;;18.45;100.00
18918;BME280;9591;52.742;13.650;2023-06-22T04:00:11;101501.94;;;18.64;100.00
18918;BME280;9591;52.742;13.650;2023-06-22T04:03:00;101493.81;;;18.65;100.00
18918;BME280;9591;52.742;13.650;2023-06-22T04:05:48;101491.84;;;18.69;100.00
18918;BME280;9591;52.742;13.650;2023-06-22T04:08:34;101499.56;;;18.75;100.00
18918;BME280;9591;52.742;13.650;2023-06-22T04:11:21;101497.41;;;18.82;100.00
18918;BME280;9591;52.742;13.650;2023-06-22T04:14:08;101493.69;;;19.16;100.00
18918;BME280;9591;52.742;13.650;2023-06-22T04:16:55;101493.34;;;19.22;100.00
18918;BME280;9591;52.742;13.650;2023-06-22T04:19:43;101492.16;;;19.59;100.00
18918;BME280;9591;52.742;13.650;2023-06-22T04:22:30;101479.66;;;19.74;100.00
18918;BME280;9591;52.742;13.650;2023-06-22T04:25:17;101491.34;;;20.03;100.00
18918;BME280;9591;52.742;13.650;2023-06-22T04:28:03;101495.06;;;20.30;100.00
18918;BME280;9591;52.742;13.650;2023-06-22T04:30:50;101491.78;;;20.55;100.00
18918;BME280;9591;52.742;13.650;2023-06-22T04:33:37;101489.47;;;20.77;100.00
18918;BME280;9591;52.742;13.650;2023-06-22T04:36:27;101484.25;;;21.03;100.00
18918;BME280;9591;52.742;13.650;2023-06-22T04:39:23;101491.59;;;21.42;100.00
18918;BME280;9591;52.742;13.650;2023-06-22T04:42:09;101491.13;;;21.35;100.00
18918;BME280;9591;52.742;13.650;2023-06-22T04:44:56;101493.38;;;21.29;100.00
18918;BME280;9591;52.742;13.650;2023-06-22T04:47:46;101495.19;;;21.28;100.00
18918;BME280;9591;52.742;13.650;2023-06-22T04:50:33;101498.84;;;21.27;100.00
18918;BME280;9591;52.742;13.650;2023-06-22T04:53:21;101505.78;;;21.31;100.00
18918;BME280;9591;52.742;13.650;2023-06-22T04:56:08;101501.69;;;21.52;100.00
18918;BME280;9591;52.742;13.650;2023-06-22T04:58:55;101501.09;;;21.74;100.00
18918;BME280;9591;52.742;13.650;2023-06-22T05:01:42;101502.84;;;22.02;100.00
18918;BME280;9591;52.742;13.650;2023-06-22T05:04:29;101500.69;;;22.07;100.00
18918;BME280;9591;52.742;13.650;2023-06-22T05:07:17;101505.91;;;22.36;100.00
18918;BME280;9591;52.742;13.650;2023-06-22T05:10:06;101500.72;;;22.71;100.00
18918;BME280;9591;52.742;13.650;2023-06-22T05:12:52;101508.94;;;22.82;100.00
18918;BME280;9591;52.742;13.650;2023-06-22T05:15:39;101502.44;;;22.72;100.00
18918;BME280;9591;52.742;13.650;2023-06-22T05:18:26;101506.13;;;22.96;100.00
18918;BME280;9591;52.742;13.650;2023-06-22T05:21:15;101513.03;;;23.13;100.00
18918;BME280;9591;52.742;13.650;2023-06-22T05:24:01;101508.59;;;22.99;100.00
18918;BME280;9591;52.742;13.650;2023-06-22T05:26:49;101507.16;;;23.19;100.00
18918;BME280;9591;52.742;13.650;2023-06-22T05:29:37;101512.53;;;23.32;100.00
18918;BME280;9591;52.742;13.650;2023-06-22T05:32:23;101506.72;;;23.25;100.00
18918;BME280;9591;52.742;13.650;2023-06-22T05:35:10;101507.81;;;23.46;100.00
18918;BME280;9591;52.742;13.650;2023-06-22T05:37:57;101509.63;;;23.59;100.00
18918;BME280;9591;52.742;13.650;2023-06-22T05:40:44;101511.72;;;23.79;100.00
18918;BME280;9591;52.742;13.650;2023-06-22T05:43:32;101528.22;;;23.87;100.00
18918;BME280;9591;52.742;13.650;2023-06-22T05:46:19;101523.81;;;23.86;100.00
18918;BME280;9591;52.742;13.650;2023-06-22T05:49:06;101522.63;;;24.01;100.00
18918;BME280;9591;52.742;13.650;2023-06-22T05:51:52;101518.38;;;24.10;100.00
18918;BME280;9591;52.742;13.650;2023-06-22T05:54:39;101519.19;;;24.34;100.00
18918;BME280;9591;52.742;13.650;2023-06-22T05:57:27;101518.31;;;24.34;100.00
18918;BME280;9591;52.742;13.650;2023-06-22T06:00:16;101515.84;;;24.31;98.62
18918;BME280;9591;52.742;13.650;2023-06-22T06:03:03;101520.78;;;24.26;100.00
18918;BME280;9591;52.742;13.650;2023-06-22T06:05:50;101524.19;;;24.16;100.00
18918;BME280;9591;52.742;13.650;2023-06-22T06:08:37;101537.03;;;24.37;87.44
18918;BME280;9591;52.742;13.650;2023-06-22T06:11:24;101539.66;;;24.49;98.60
18918;BME280;9591;52.742;13.650;2023-06-22T06:14:11;101535.63;;;24.66;100.00
18918;BME280;9591;52.742;13.650;2023-06-22T06:16:59;101536.81;;;24.51;83.88
18918;BME280;9591;52.742;13.650;2023-06-22T06:19:46;101535.50;;;24.68;94.32
18918;BME280;9591;52.742;13.650;2023-06-22T06:22:33;101534.75;;;24.66;86.19
18918;BME280;9591;52.742;13.650;2023-06-22T06:25:20;101536.84;;;24.62;89.12
18918;BME280;9591;52.742;13.650;2023-06-22T06:28:07;101536.13;;;24.71;90.73
18918;BME280;9591;52.742;13.650;2023-06-22T06:30:54;101538.22;;;24.79;79.20
18918;BME280;9591;52.742;13.650;2023-06-22T06:33:42;101538.47;;;24.76;80.35
18918;BME280;9591;52.742;13.650;2023-06-22T06:36:29;101534.78;;;24.88;77.17
18918;BME280;9591;52.742;13.650;2023-06-22T06:39:16;101534.31;;;24.94;90.99
18918;BME280;9591;52.742;13.650;2023-06-22T06:42:04;101530.34;;;24.76;77.04
18918;BME280;9591;52.742;13.650;2023-06-22T06:44:51;101537.38;;;24.90;80.02
18918;BME280;9591;52.742;13.650;2023-06-22T06:47:38;101531.25;;;25.10;85.28
18918;BME280;9591;52.742;13.650;2023-06-22T06:50:27;101531.09;;;25.23;84.97
18918;BME280;9591;52.742;13.650;2023-06-22T06:53:19;101529.50;;;25.20;76.74
18918;BME280;9591;52.742;13.650;2023-06-22T06:56:09;101533.31;;;25.29;82.84
18918;BME280;9591;52.742;13.650;2023-06-22T06:58:58;101526.03;;;25.29;90.37
18918;BME280;9591;52.742;13.650;2023-06-22T07:01:49;101528.50;;;25.21;74.33
18918;BME280;9591;52.742;13.650;2023-06-22T07:04:39;101528.25;;;25.24;76.27
18918;BME280;9591;52.742;13.650;2023-06-22T07:07:43;101527.25;;;25.47;75.44
18918;BME280;9591;52.742;13.650;2023-06-22T07:10:31;101517.88;;;25.52;79.13
18918;BME280;9591;52.742;13.650;2023-06-22T07:13:21;101521.09;;;25.45;70.69
18918;BME280;9591;52.742;13.650;2023-06-22T07:16:10;101510.94;;;25.59;70.17
18918;BME280;9591;52.742;13.650;2023-06-22T07:19:01;101508.72;;;25.75;73.98
18918;BME280;9591;52.742;13.650;2023-06-22T07:22:02;101494.25;;;25.86;83.26
18918;BME280;9591;52.742;13.650;2023-06-22T07:24:51;101514.56;;;25.91;84.05
18918;BME280;9591;52.742;13.650;2023-06-22T07:27:46;101513.84;;;25.89;71.70
18918;BME280;9591;52.742;13.650;2023-06-22T07:30:41;101513.84;;;25.89;68.17
18918;BME280;9591;52.742;13.650;2023-06-22T07:33:34;101501.78;;;26.03;75.84
18918;BME280;9591;52.742;13.650;2023-06-22T07:36:21;101486.31;;;25.94;75.83
18918;BME280;9591;52.742;13.650;2023-06-22T07:39:08;101490.06;;;26.02;74.37
18918;BME280;9591;52.742;13.650;2023-06-22T07:41:57;101496.72;;;26.30;70.11
18918;BME280;9591;52.742;13.650;2023-06-22T07:44:45;101499.38;;;26.41;68.91
18918;BME280;9591;52.742;13.650;2023-06-22T07:47:33;101496.69;;;26.41;64.09
18918;BME280;9591;52.742;13.650;2023-06-22T07:50:21;101488.41;;;26.43;68.26
18918;BME280;9591;52.742;13.650;2023-06-22T07:53:08;101488.84;;;26.48;65.46
18918;BME280;9591;52.742;13.650;2023-06-22T07:55:56;101488.19;;;26.56;64.54
18918;BME280;9591;52.742;13.650;2023-06-22T07:58:51;101482.88;;;26.54;71.34
18918;BME280;9591;52.742;13.650;2023-06-22T08:01:39;101488.06;;;26.57;67.38
18918;BME280;9591;52.742;13.650;2023-06-22T08:04:30;101479.84;;;26.48;65.11
18918;BME280;9591;52.742;13.650;2023-06-22T08:07:20;101480.50;;;26.40;77.20
18918;BME280;9591;52.742;13.650;2023-06-22T08:10:11;101476.06;;;26.39;66.98
18918;BME280;9591;52.742;13.650;2023-06-22T08:12:59;101481.16;;;26.53;64.47
18918;BME280;9591;52.742;13.650;2023-06-22T08:15:47;101488.28;;;26.75;61.23
18918;BME280;9591;52.742;13.650;2023-06-22T08:18:35;101486.75;;;26.92;57.55
18918;BME280;9591;52.742;13.650;2023-06-22T08:21:23;101480.44;;;27.12;67.19
18918;BME280;9591;52.742;13.650;2023-06-22T08:24:14;101472.31;;;27.22;65.15
18918;BME280;9591;52.742;13.650;2023-06-22T08:27:03;101479.47;;;27.23;63.19
18918;BME280;9591;52.742;13.650;2023-06-22T08:29:52;101485.06;;;27.31;57.50
18918;BME280;9591;52.742;13.650;2023-06-22T08:32:50;101485.38;;;27.37;58.48
18918;BME280;9591;52.742;13.650;2023-06-22T08:35:38;101484.81;;;27.43;59.91
18918;BME280;9591;52.742;13.650;2023-06-22T08:38:30;101475.66;;;27.54;64.31
18918;BME280;9591;52.742;13.650;2023-06-22T08:41:22;101483.66;;;27.46;60.34
18918;BME280;9591;52.742;13.650;2023-06-22T08:44:10;101481.81;;;27.56;59.44
18918;BME280;9591;52.742;13.650;2023-06-22T08:46:58;101484.59;;;27.66;68.02
18918;BME280;9591;52.742;13.650;2023-06-22T08:49:49;101483.97;;;27.53;65.41
18918;BME280;9591;52.742;13.650;2023-06-22T08:52:38;101490.69;;;27.58;55.60
18918;BME280;9591;52.742;13.650;2023-06-22T08:55:27;101489.16;;;27.65;56.74
18918;BME280;9591;52.742;13.650;2023-06-22T08:58:15;101481.69;;;27.77;57.04
18918;BME280;9591;52.742;13.650;2023-06-22T09:01:03;101485.41;;;27.76;57.45
18918;BME280;9591;52.742;13.650;2023-06-22T09:03:50;101488.59;;;27.62;62.30
18918;BME280;9591;52.742;13.650;2023-06-22T09:06:44;101482.59;;;27.68;63.13
18918;BME280;9591;52.742;13.650;2023-06-22T09:09:32;101483.16;;;27.62;67.49
18918;BME280;9591;52.742;13.650;2023-06-22T09:12:20;101483.41;;;27.59;64.88
18918;BME280;9591;52.742;13.650;2023-06-22T09:15:11;101454.09;;;27.62;63.30
18918;BME280;9591;52.742;13.650;2023-06-22T09:18:03;101471.09;;;27.74;66.27
18918;BME280;9591;52.742;13.650;2023-06-22T09:20:49;101468.66;;;27.81;60.49
18918;BME280;9591;52.742;13.650;2023-06-22T09:23:37;101468.66;;;27.81;70.44
18918;BME280;9591;52.742;13.650;2023-06-22T09:26:25;101461.66;;;27.97;64.50
18918;BME280;9591;52.742;13.650;2023-06-22T09:29:12;101461.91;;;28.14;58.09
18918;BME280;9591;52.742;13.650;2023-06-22T09:31:59;101461.50;;;27.99;62.63
18918;BME280;9591;52.742;13.650;2023-06-22T09:34:47;101460.78;;;27.97;55.59
18918;BME280;9591;52.742;13.650;2023-06-22T09:37:34;101463.06;;;28.11;59.00
18918;BME280;9591;52.742;13.650;2023-06-22T09:40:23;101465.34;;;28.06;63.25
18918;BME280;9591;52.742;13.650;2023-06-22T09:43:11;101463.50;;;27.87;64.88
18918;BME280;9591;52.742;13.650;2023-06-22T09:45:58;101462.19;;;28.11;65.70
18918;BME280;9591;52.742;13.650;2023-06-22T09:48:45;101460.34;;;27.92;59.74
18918;BME280;9591;52.742;13.650;2023-06-22T09:51:32;101452.91;;;28.23;55.14
18918;BME280;9591;52.742;13.650;2023-06-22T09:54:19;101448.00;;;28.17;58.35
18918;BME280;9591;52.742;13.650;2023-06-22T09:57:08;101459.34;;;28.12;51.13
18918;BME280;9591;52.742;13.650;2023-06-22T09:59:55;101454.75;;;28.13;61.46
18918;BME280;9591;52.742;13.650;2023-06-22T10:02:42;101459.34;;;28.22;58.89
18918;BME280;9591;52.742;13.650;2023-06-22T10:05:30;101466.06;;;28.18;57.28
18918;BME280;9591;52.742;13.650;2023-06-22T10:08:18;101466.22;;;28.26;54.07
18918;BME280;9591;52.742;13.650;2023-06-22T10:11:05;101465.06;;;28.38;53.23
18918;BME280;9591;52.742;13.650;2023-06-22T10:13:53;101456.28;;;28.54;59.34
18918;BME280;9591;52.742;13.650;2023-06-22T10:16:40;101459.84;;;28.54;53.01
18918;BME280;9591;52.742;13.650;2023-06-22T10:19:27;101463.22;;;28.66;55.14
18918;BME280;9591;52.742;13.650;2023-06-22T10:22:14;101456.75;;;28.67;52.19
18918;BME280;9591;52.742;13.650;2023-06-22T10:25:01;101457.44;;;28.88;53.43
18918;BME280;9591;52.742;13.650;2023-06-22T10:27:48;101455.38;;;29.00;54.47
18918;BME280;9591;52.742;13.650;2023-06-22T10:30:36;101451.16;;;29.06;51.59
18918;BME280;9591;52.742;13.650;2023-06-22T10:33:23;101450.50;;;28.94;54.14
18918;BME280;9591;52.742;13.650;2023-06-22T10:36:10;101456.81;;;28.94;48.51
18918;BME280;9591;52.742;13.650;2023-06-22T10:38:57;101450.72;;;29.10;48.44
18918;BME280;9591;52.742;13.650;2023-06-22T10:41:45;101443.59;;;28.99;52.26
18918;BME280;9591;52.742;13.650;2023-06-22T10:44:31;101450.63;;;29.02;48.03
18918;BME280;9591;52.742;13.650;2023-06-22T10:47:19;101437.47;;;29.15;47.97
18918;BME280;9591;52.742;13.650;2023-06-22T10:50:07;101439.47;;;29.41;58.60
18918;BME280;9591;52.742;13.650;2023-06-22T10:52:54;101433.75;;;29.16;50.40
18918;BME280;9591;52.742;13.650;2023-06-22T10:55:45;101432.91;;;29.33;48.91
18918;BME280;9591;52.742;13.650;2023-06-22T10:58:44;101426.44;;;29.34;49.29
18918;BME280;9591;52.742;13.650;2023-06-22T11:01:32;101430.50;;;29.30;53.23
18918;BME280;9591;52.742;13.650;2023-06-22T11:04:24;101421.84;;;29.35;49.90
18918;BME280;9591;52.742;13.650;2023-06-22T11:07:11;101408.31;;;29.43;52.08
18918;BME280;9591;52.742;13.650;2023-06-22T11:09:58;101400.97;;;29.61;52.09
18918;BME280;9591;52.742;13.650;2023-06-22T11:12:44;101401.66;;;29.81;47.28
18918;BME280;9591;52.742;13.650;2023-06-22T11:15:31;101397.59;;;29.85;46.05
18918;BME280;9591;52.742;13.650;2023-06-22T11:18:19;101399.31;;;29.86;46.55
18918;BME280;9591;52.742;13.650;2023-06-22T11:21:07;101393.84;;;29.86;45.30
18918;BME280;9591;52.742;13.650;2023-06-22T11:23:54;101392.97;;;29.86;45.07
18918;BME280;9591;52.742;13.650;2023-06-22T11:26:40;101397.59;;;29.67;46.32
18918;BME280;9591;52.742;13.650;2023-06-22T11:29:27;101383.28;;;29.48;47.54
18918;BME280;9591;52.742;13.650;2023-06-22T11:32:22;101386.84;;;29.66;51.88
18918;BME280;9591;52.742;13.650;2023-06-22T11:35:09;101385.91;;;29.75;48.86
18918;BME280;9591;52.742;13.650;2023-06-22T11:37:58;101385.03;;;29.75;52.32
18918;BME280;9591;52.742;13.650;2023-06-22T11:40:46;101367.59;;;29.50;47.87
18918;BME280;9591;52.742;13.650;2023-06-22T11:43:34;101368.91;;;29.63;48.85
18918;BME280;9591;52.742;13.650;2023-06-22T11:46:21;101364.50;;;29.88;nan
18918;BME280;9591;52.742;13.650;2023-06-22T11:49:08;101377.13;;;29.89;44.72
18918;BME280;9591;52.742;13.650;2023-06-22T11:51:56;101378.03;;;29.72;46.15
18918;BME280;9591;52.742;13.650;2023-06-22T11:54:44;101385.75;;;29.59;51.43
18918;BME280;9591;52.742;13.650;2023-06-22T11:57:33;101370.63;;;29.29;52.88
18918;BME280;9591;52.742;13.650;2023-06-22T12:00:24;101385.34;;;29.18;55.10
18918;BME280;9591;52.742;13.650;2023-06-22T12:03:37;101382.38;;;29.12;54.94
18918;BME280;9591;52.742;13.650;2023-06-22T12:06:27;101374.13;;;29.21;54.74
18918;BME280;9591;52.742;13.650;2023-06-22T12:09:14;101384.34;;;29.19;48.65
18918;BME280;9591;52.742;13.650;2023-06-22T12:12:03;101389.97;;;29.18;58.86
18918;BME280;9591;52.742;13.650;2023-06-22T12:14:53;101382.56;;;29.28;59.29
18918;BME280;9591;52.742;13.650;2023-06-22T12:17:40;101384.78;;;29.42;54.23
18918;BME280;9591;52.742;13.650;2023-06-22T12:20:27;101378.50;;;29.67;51.88
18918;BME280;9591;52.742;13.650;2023-06-22T12:23:15;101370.84;;;29.71;55.00
18918;BME280;9591;52.742;13.650;2023-06-22T12:26:01;101365.81;;;29.58;48.32
18918;BME280;9591;52.742;13.650;2023-06-22T12:28:50;101362.53;;;29.55;60.07
18918;BME280;9591;52.742;13.650;2023-06-22T12:31:37;101349.50;;;29.49;58.04
18918;BME280;9591;52.742;13.650;2023-06-22T12:34:24;101357.28;;;29.79;47.62
18918;BME280;9591;52.742;13.650;2023-06-22T12:37:11;101350.59;;;29.99;46.39
18918;BME280;9591;52.742;13.650;2023-06-22T12:39:58;101343.56;;;30.15;46.40
18918;BME280;9591;52.742;13.650;2023-06-22T12:42:45;101352.22;;;30.10;45.87
18918;BME280;9591;52.742;13.650;2023-06-22T12:45:33;101344.19;;;30.09;45.79
18918;BME280;9591;52.742;13.650;2023-06-22T12:48:19;101344.25;;;30.17;44.80
18918;BME280;9591;52.742;13.650;2023-06-22T12:51:06;101340.53;;;30.26;45.74
18918;BME280;9591;52.742;13.650;2023-06-22T12:53:53;101347.72;;;30.27;45.23
18918;BME280;9591;52.742;13.650;2023-06-22T12:56:40;101328.19;;;30.14;49.47
18918;BME280;9591;52.742;13.650;2023-06-22T12:59:29;101326.19;;;30.24;52.91
18918;BME280;9591;52.742;13.650;2023-06-22T13:02:17;101324.13;;;30.18;46.13
18918;BME280;9591;52.742;13.650;2023-06-22T13:05:04;101320.84;;;30.14;47.16
18918;BME280;9591;52.742;13.650;2023-06-22T13:07:51;101318.53;;;30.27;48.06
18918;BME280;9591;52.742;13.650;2023-06-22T13:10:40;101307.00;;;30.08;50.86
18918;BME280;9591;52.742;13.650;2023-06-22T13:13:27;101313.94;;;30.36;47.02
18918;BME280;9591;52.742;13.650;2023-06-22T13:16:13;101304.75;;;30.45;48.10
18918;BME280;9591;52.742;13.650;2023-06-22T13:19:02;101308.50;;;30.44;45.57
18918;BME280;9591;52.742;13.650;2023-06-22T13:21:48;101302.88;;;30.46;48.25
18918;BME280;9591;52.742;13.650;2023-06-22T13:24:35;101312.63;;;30.48;47.51
18918;BME280;9591;52.742;13.650;2023-06-22T13:27:22;101304.44;;;30.56;44.26
18918;BME280;9591;52.742;13.650;2023-06-22T13:30:09;101294.00;;;30.52;48.88
18918;BME280;9591;52.742;13.650;2023-06-22T13:32:58;101289.03;;;30.47;47.45
18918;BME280;9591;52.742;13.650;2023-06-22T13:35:47;101292.03;;;30.20;53.68
18918;BME280;9591;52.742;13.650;2023-06-22T13:38:36;101286.56;;;30.20;47.48
18918;BME280;9591;52.742;13.650;2023-06-22T13:41:24;101283.72;;;30.38;43.16
18918;BME280;9591;52.742;13.650;2023-06-22T13:44:11;101286.25;;;30.23;44.74
18918;BME280;9591;52.742;13.650;2023-06-22T13:46:57;101287.09;;;30.23;47.68
18918;BME280;9591;52.742;13.650;2023-06-22T13:49:44;101280.81;;;30.39;46.87
18918;BME280;9591;52.742;13.650;2023-06-22T13:52:32;101276.41;;;30.46;45.79
18918;BME280;9591;52.742;13.650;2023-06-22T13:55:19;101264.78;;;30.44;46.06
18918;BME280;9591;52.742;13.650;2023-06-22T13:58:06;101262.91;;;30.45;44.96
18918;BME280;9591;52.742;13.650;2023-06-22T14:00:53;101274.88;;;30.52;46.21
18918;BME280;9591;52.742;13.650;2023-06-22T14:03:41;101281.63;;;30.65;46.07
18918;BME280;9591;52.742;13.650;2023-06-22T14:06:29;101266.97;;;30.83;44.47
18918;BME280;9591;52.742;13.650;2023-06-22T14:09:18;101259.97;;;30.80;45.84
18918;BME280;9591;52.742;13.650;2023-06-22T14:12:05;101262.22;;;30.93;48.83
18918;BME280;9591;52.742;13.650;2023-06-22T14:14:53;101251.06;;;30.78;47.05
18918;BME280;9591;52.742;13.650;2023-06-22T14:17:39;101236.22;;;30.81;45.09
18918;BME280;9591;52.742;13.650;2023-06-22T14:20:26;101236.41;;;30.87;44.57
18918;BME280;9591;52.742;13.650;2023-06-22T14:23:13;101227.16;;;30.80;48.77
18918;BME280;9591;52.742;13.650;2023-06-22T14:26:02;101222.56;;;30.89;46.81
18918;BME280;9591;52.742;13.650;2023-06-22T14:28:49;101212.78;;;30.70;47.43
18918;BME280;9591;52.742;13.650;2023-06-22T14:31:36;101217.94;;;30.89;45.72
18918;BME280;9591;52.742;13.650;2023-06-22T14:34:23;101216.41;;;30.95;45.50